ANA606 RJFO-RJTT
Flight info
| Callsign | ANA606 |
|---|---|
| Flight time | 1h 8m |
| Altitude | 37000 |
| Route | FIATO Y61 KTE Y33 SHOOT Y71 XAC |
| Aircraft | A20N/M-SDE2E3FGHIRWXY/LB1 |
Departure
| Time | 2026-05-06 15:04 |
|---|---|
| Airport | Oita Airport (RJFO) |
Arrival
| Time | 2026-05-06 16:13 |
|---|---|
| Airport | Tokyo Haneda International Airport (RJTT) |
| Time | Latitude | Longitude | Altitude | Speed | Heading |
|---|---|---|---|---|---|
| 2026-05-06 15:04 | 33.37075 | 132.09194 | 12266 ft | 357 kts | 46° |
| 2026-05-06 15:04 | 33.38798 | 132.11357 | 13041 ft | 361 kts | 45° |
| 2026-05-06 15:04 | 33.40517 | 132.13577 | 13826 ft | 365 kts | 47° |
| 2026-05-06 15:05 | 33.42138 | 132.15933 | 14494 ft | 370 kts | 57° |
| 2026-05-06 15:05 | 33.43296 | 132.18693 | 15196 ft | 373 kts | 65° |
| 2026-05-06 15:05 | 33.44348 | 132.21553 | 15867 ft | 377 kts | 65° |
| 2026-05-06 15:05 | 33.45394 | 132.24445 | 16541 ft | 380 kts | 66° |
| 2026-05-06 15:06 | 33.46452 | 132.27367 | 17196 ft | 384 kts | 65° |
| 2026-05-06 15:06 | 33.47525 | 132.30313 | 17823 ft | 387 kts | 65° |
| 2026-05-06 15:06 | 33.48611 | 132.33284 | 18437 ft | 391 kts | 65° |
| 2026-05-06 15:06 | 33.49708 | 132.36279 | 18979 ft | 394 kts | 65° |
| 2026-05-06 15:07 | 33.50813 | 132.39299 | 19520 ft | 397 kts | 65° |
| 2026-05-06 15:07 | 33.51927 | 132.42345 | 20062 ft | 400 kts | 65° |
| 2026-05-06 15:07 | 33.53046 | 132.45410 | 20578 ft | 404 kts | 65° |
| 2026-05-06 15:07 | 33.54175 | 132.48505 | 21107 ft | 407 kts | 65° |
| 2026-05-06 15:08 | 33.55298 | 132.51584 | 21608 ft | 411 kts | 65° |
| 2026-05-06 15:08 | 33.56447 | 132.54737 | 22135 ft | 414 kts | 65° |
| 2026-05-06 15:08 | 33.57601 | 132.57910 | 22657 ft | 417 kts | 65° |
| 2026-05-06 15:08 | 33.58766 | 132.61113 | 23167 ft | 421 kts | 65° |
| 2026-05-06 15:09 | 33.59938 | 132.64340 | 23663 ft | 424 kts | 65° |
| 2026-05-06 15:09 | 33.61119 | 132.67596 | 24093 ft | 427 kts | 65° |
| 2026-05-06 15:09 | 33.62310 | 132.70882 | 24551 ft | 429 kts | 65° |
| 2026-05-06 15:09 | 33.63503 | 132.74177 | 25013 ft | 432 kts | 65° |
| 2026-05-06 15:10 | 33.64701 | 132.77487 | 25436 ft | 434 kts | 65° |
| 2026-05-06 15:10 | 33.65906 | 132.80823 | 25874 ft | 437 kts | 65° |
| 2026-05-06 15:10 | 33.67117 | 132.84178 | 26289 ft | 439 kts | 65° |
| 2026-05-06 15:10 | 33.68335 | 132.87555 | 26702 ft | 442 kts | 65° |
| 2026-05-06 15:11 | 33.69559 | 132.90954 | 27109 ft | 444 kts | 65° |
| 2026-05-06 15:11 | 33.70787 | 132.94366 | 27522 ft | 447 kts | 65° |
| 2026-05-06 15:11 | 33.72022 | 132.97801 | 27916 ft | 449 kts | 65° |
| 2026-05-06 15:11 | 33.73263 | 133.01255 | 28300 ft | 451 kts | 65° |
| 2026-05-06 15:12 | 33.74509 | 133.04730 | 28666 ft | 454 kts | 65° |
| 2026-05-06 15:12 | 33.75762 | 133.08224 | 29017 ft | 457 kts | 65° |
| 2026-05-06 15:12 | 33.77020 | 133.11741 | 29359 ft | 459 kts | 65° |
| 2026-05-06 15:12 | 33.78286 | 133.15279 | 29695 ft | 462 kts | 65° |
| 2026-05-06 15:13 | 33.79554 | 133.18829 | 30051 ft | 464 kts | 65° |
| 2026-05-06 15:13 | 33.80829 | 133.22405 | 30378 ft | 466 kts | 65° |
| 2026-05-06 15:13 | 33.82110 | 133.25998 | 30652 ft | 469 kts | 65° |
| 2026-05-06 15:13 | 33.83401 | 133.29622 | 30907 ft | 473 kts | 65° |
| 2026-05-06 15:14 | 33.84697 | 133.33267 | 31153 ft | 476 kts | 65° |
| 2026-05-06 15:14 | 33.85999 | 133.36932 | 31472 ft | 477 kts | 65° |
| 2026-05-06 15:14 | 33.87301 | 133.40603 | 31833 ft | 477 kts | 65° |
| 2026-05-06 15:14 | 33.88599 | 133.44266 | 32200 ft | 476 kts | 65° |
| 2026-05-06 15:15 | 33.89894 | 133.47927 | 32568 ft | 476 kts | 65° |
| 2026-05-06 15:15 | 33.91194 | 133.51604 | 32874 ft | 477 kts | 65° |
| 2026-05-06 15:15 | 33.92494 | 133.55283 | 33144 ft | 479 kts | 65° |
| 2026-05-06 15:15 | 33.93801 | 133.58986 | 33428 ft | 480 kts | 65° |
| 2026-05-06 15:16 | 33.94888 | 133.62070 | 33688 ft | 481 kts | 65° |
| 2026-05-06 15:16 | 33.95753 | 133.64529 | 33909 ft | 480 kts | 65° |
| 2026-05-06 15:16 | 33.97494 | 133.69478 | 34325 ft | 480 kts | 65° |
| 2026-05-06 15:16 | 33.98793 | 133.73178 | 34579 ft | 480 kts | 66° |
| 2026-05-06 15:17 | 34.00100 | 133.76901 | 34765 ft | 482 kts | 66° |
| 2026-05-06 15:17 | 34.01392 | 133.80588 | 34905 ft | 485 kts | 66° |
| 2026-05-06 15:17 | 34.02707 | 133.84345 | 35062 ft | 487 kts | 66° |
| 2026-05-06 15:17 | 34.04026 | 133.88117 | 35241 ft | 489 kts | 66° |
| 2026-05-06 15:18 | 34.05349 | 133.91904 | 35418 ft | 491 kts | 66° |
| 2026-05-06 15:18 | 34.06676 | 133.95708 | 35596 ft | 492 kts | 66° |
| 2026-05-06 15:18 | 34.08008 | 133.99531 | 35750 ft | 495 kts | 66° |
| 2026-05-06 15:18 | 34.09342 | 134.03364 | 35871 ft | 498 kts | 66° |
| 2026-05-06 15:19 | 34.10687 | 134.07227 | 36025 ft | 500 kts | 67° |
| 2026-05-06 15:19 | 34.12032 | 134.11098 | 36184 ft | 501 kts | 67° |
| 2026-05-06 15:19 | 34.13377 | 134.14974 | 36352 ft | 502 kts | 67° |
| 2026-05-06 15:19 | 34.14728 | 134.18877 | 36520 ft | 503 kts | 67° |
| 2026-05-06 15:20 | 34.16076 | 134.22776 | 36672 ft | 505 kts | 67° |
| 2026-05-06 15:20 | 34.17422 | 134.26671 | 36848 ft | 505 kts | 67° |
| 2026-05-06 15:20 | 34.18781 | 134.30610 | 36978 ft | 507 kts | 68° |
| 2026-05-06 15:20 | 34.20093 | 134.34573 | 37091 ft | 508 kts | 73° |
| 2026-05-06 15:21 | 34.20902 | 134.38705 | 37105 ft | 506 kts | 83° |
| 2026-05-06 15:21 | 34.21888 | 134.47128 | 37104 ft | 506 kts | 84° |
| 2026-05-06 15:22 | 34.22859 | 134.55513 | 37102 ft | 508 kts | 84° |
| 2026-05-06 15:22 | 34.23869 | 134.63987 | 37100 ft | 510 kts | 84° |
| 2026-05-06 15:23 | 34.24887 | 134.72504 | 37100 ft | 514 kts | 84° |
| 2026-05-06 15:23 | 34.25903 | 134.81084 | 37106 ft | 518 kts | 85° |
| 2026-05-06 15:24 | 34.26914 | 134.89694 | 37109 ft | 517 kts | 85° |
| 2026-05-06 15:24 | 34.27922 | 134.98328 | 37102 ft | 519 kts | 85° |
| 2026-05-06 15:25 | 34.28926 | 135.06982 | 37103 ft | 521 kts | 85° |
| 2026-05-06 15:25 | 34.29926 | 135.15667 | 37098 ft | 523 kts | 85° |
| 2026-05-06 15:26 | 34.30925 | 135.24384 | 37100 ft | 523 kts | 86° |
| 2026-05-06 15:26 | 34.31751 | 135.31641 | 37108 ft | 525 kts | 86° |
| 2026-05-06 15:27 | 34.32912 | 135.41903 | 37113 ft | 527 kts | 86° |
| 2026-05-06 15:27 | 34.33732 | 135.49191 | 37104 ft | 525 kts | 86° |
| 2026-05-06 15:28 | 34.34710 | 135.57957 | 37109 ft | 527 kts | 86° |
| 2026-05-06 15:28 | 34.35686 | 135.66754 | 37114 ft | 528 kts | 86° |
| 2026-05-06 15:29 | 34.36658 | 135.75570 | 37115 ft | 528 kts | 86° |
| 2026-05-06 15:29 | 34.37623 | 135.84386 | 37120 ft | 528 kts | 86° |
| 2026-05-06 15:30 | 34.38582 | 135.93201 | 37119 ft | 528 kts | 86° |
| 2026-05-06 15:30 | 34.39534 | 136.02028 | 37124 ft | 530 kts | 86° |
| 2026-05-06 15:31 | 34.40486 | 136.10892 | 37115 ft | 529 kts | 86° |
| 2026-05-06 15:31 | 34.41427 | 136.19740 | 37127 ft | 531 kts | 86° |
| 2026-05-06 15:32 | 34.42826 | 136.32978 | 37122 ft | 530 kts | 87° |
| 2026-05-06 15:32 | 34.43753 | 136.41842 | 37120 ft | 529 kts | 87° |
| 2026-05-06 15:33 | 34.44672 | 136.50698 | 37115 ft | 530 kts | 87° |
| 2026-05-06 15:33 | 34.45586 | 136.59551 | 37110 ft | 530 kts | 87° |
| 2026-05-06 15:34 | 34.46494 | 136.68426 | 37114 ft | 531 kts | 87° |
| 2026-05-06 15:34 | 34.47397 | 136.77308 | 37114 ft | 531 kts | 87° |
| 2026-05-06 15:35 | 34.48293 | 136.86191 | 37114 ft | 531 kts | 87° |
| 2026-05-06 15:35 | 34.49183 | 136.95080 | 37111 ft | 531 kts | 87° |
| 2026-05-06 15:36 | 34.50062 | 137.03918 | 37108 ft | 532 kts | 87° |
| 2026-05-06 15:36 | 34.50940 | 137.12819 | 37108 ft | 532 kts | 87° |
| 2026-05-06 15:37 | 34.51812 | 137.21728 | 37105 ft | 532 kts | 87° |
| 2026-05-06 15:37 | 34.52677 | 137.30632 | 37104 ft | 532 kts | 87° |
| 2026-05-06 15:38 | 34.53536 | 137.39537 | 37105 ft | 532 kts | 87° |
| 2026-05-06 15:38 | 34.54389 | 137.48450 | 37103 ft | 532 kts | 87° |
| 2026-05-06 15:39 | 34.55235 | 137.57365 | 37105 ft | 532 kts | 87° |
| 2026-05-06 15:39 | 34.56075 | 137.66283 | 37103 ft | 532 kts | 87° |
| 2026-05-06 15:40 | 34.56910 | 137.75212 | 37104 ft | 532 kts | 87° |
| 2026-05-06 15:40 | 34.57738 | 137.84144 | 36905 ft | 534 kts | 87° |
| 2026-05-06 15:41 | 34.58150 | 137.88611 | 36662 ft | 532 kts | 87° |
| 2026-05-06 15:41 | 34.58559 | 137.93071 | 36416 ft | 531 kts | 87° |
| 2026-05-06 15:41 | 34.58965 | 137.97511 | 36171 ft | 531 kts | 87° |
| 2026-05-06 15:41 | 34.59371 | 138.01967 | 35927 ft | 531 kts | 87° |
| 2026-05-06 15:42 | 34.59774 | 138.06418 | 35688 ft | 531 kts | 87° |
| 2026-05-06 15:42 | 34.60177 | 138.10877 | 35451 ft | 530 kts | 87° |
| 2026-05-06 15:42 | 34.60576 | 138.15321 | 35216 ft | 530 kts | 87° |
| 2026-05-06 15:42 | 34.60975 | 138.19772 | 34978 ft | 530 kts | 87° |
| 2026-05-06 15:43 | 34.61372 | 138.24219 | 34743 ft | 529 kts | 87° |
| 2026-05-06 15:43 | 34.61761 | 138.28601 | 34514 ft | 529 kts | 87° |
| 2026-05-06 15:43 | 34.62158 | 138.33090 | 34278 ft | 529 kts | 87° |
| 2026-05-06 15:43 | 34.62549 | 138.37530 | 34040 ft | 528 kts | 87° |
| 2026-05-06 15:44 | 34.62938 | 138.41974 | 33777 ft | 528 kts | 87° |
| 2026-05-06 15:44 | 34.63325 | 138.46404 | 33516 ft | 529 kts | 87° |
| 2026-05-06 15:44 | 34.63710 | 138.50847 | 33252 ft | 529 kts | 87° |
| 2026-05-06 15:44 | 34.64095 | 138.55292 | 32995 ft | 529 kts | 87° |
| 2026-05-06 15:45 | 34.64478 | 138.59735 | 32729 ft | 529 kts | 87° |
| 2026-05-06 15:45 | 34.64858 | 138.64173 | 32286 ft | 529 kts | 87° |
| 2026-05-06 15:45 | 34.65231 | 138.68550 | 31570 ft | 532 kts | 86° |
| 2026-05-06 15:45 | 34.65612 | 138.73049 | 30648 ft | 536 kts | 86° |
| 2026-05-06 15:46 | 34.65993 | 138.77577 | 29559 ft | 543 kts | 86° |
| 2026-05-06 15:46 | 34.66380 | 138.82162 | 28595 ft | 544 kts | 86° |
| 2026-05-06 15:46 | 34.66763 | 138.86699 | 27916 ft | 538 kts | 87° |
| 2026-05-06 15:46 | 34.67140 | 138.91184 | 27335 ft | 531 kts | 87° |
| 2026-05-06 15:47 | 34.67512 | 138.95633 | 26700 ft | 525 kts | 87° |
| 2026-05-06 15:47 | 34.67876 | 139.00023 | 26070 ft | 520 kts | 87° |
| 2026-05-06 15:47 | 34.68235 | 139.04374 | 25469 ft | 514 kts | 87° |
| 2026-05-06 15:47 | 34.68588 | 139.08670 | 24865 ft | 509 kts | 88° |
| 2026-05-06 15:48 | 34.68937 | 139.12930 | 24284 ft | 505 kts | 88° |
| 2026-05-06 15:48 | 34.69282 | 139.17159 | 23692 ft | 500 kts | 88° |
| 2026-05-06 15:48 | 34.69621 | 139.21339 | 23013 ft | 495 kts | 88° |
| 2026-05-06 15:48 | 34.69956 | 139.25486 | 22366 ft | 490 kts | 87° |
| 2026-05-06 15:49 | 34.70286 | 139.29574 | 21735 ft | 485 kts | 87° |
| 2026-05-06 15:49 | 34.70615 | 139.33651 | 21113 ft | 480 kts | 87° |
| 2026-05-06 15:49 | 34.70997 | 139.37658 | 20518 ft | 477 kts | 81° |
| 2026-05-06 15:49 | 34.71955 | 139.41503 | 19947 ft | 474 kts | 67° |
| 2026-05-06 15:50 | 34.73567 | 139.44963 | 19340 ft | 469 kts | 52° |
| 2026-05-06 15:50 | 34.75715 | 139.47885 | 18812 ft | 460 kts | 41° |
| 2026-05-06 15:50 | 34.78048 | 139.50506 | 18277 ft | 454 kts | 39° |
| 2026-05-06 15:50 | 34.80366 | 139.53083 | 17704 ft | 448 kts | 40° |
| 2026-05-06 15:51 | 34.82586 | 139.55650 | 17156 ft | 442 kts | 41° |
| 2026-05-06 15:51 | 34.84051 | 139.57402 | 17003 ft | 433 kts | 42° |
| 2026-05-06 15:51 | 34.86790 | 139.60763 | 16792 ft | 413 kts | 42° |
| 2026-05-06 15:51 | 34.88766 | 139.63223 | 16651 ft | 399 kts | 43° |
| 2026-05-06 15:52 | 34.90669 | 139.65602 | 16518 ft | 385 kts | 42° |
| 2026-05-06 15:52 | 34.92504 | 139.67898 | 16388 ft | 372 kts | 42° |
| 2026-05-06 15:52 | 34.94273 | 139.70112 | 16275 ft | 360 kts | 42° |
| 2026-05-06 15:52 | 34.95975 | 139.72243 | 16164 ft | 348 kts | 42° |
| 2026-05-06 15:53 | 34.97644 | 139.74333 | 15998 ft | 338 kts | 42° |
| 2026-05-06 15:53 | 34.99270 | 139.76362 | 15670 ft | 334 kts | 41° |
| 2026-05-06 15:53 | 35.00384 | 139.77707 | 15441 ft | 332 kts | 41° |
| 2026-05-06 15:53 | 35.02572 | 139.80289 | 15000 ft | 328 kts | 40° |
| 2026-05-06 15:54 | 35.04210 | 139.82217 | 14667 ft | 325 kts | 41° |
| 2026-05-06 15:54 | 35.05830 | 139.84132 | 14369 ft | 323 kts | 41° |
| 2026-05-06 15:54 | 35.07431 | 139.86033 | 14056 ft | 320 kts | 42° |
| 2026-05-06 15:54 | 35.09019 | 139.87926 | 13696 ft | 318 kts | 42° |
| 2026-05-06 15:55 | 35.10595 | 139.89806 | 13314 ft | 316 kts | 42° |
| 2026-05-06 15:55 | 35.12157 | 139.91673 | 12986 ft | 313 kts | 42° |
| 2026-05-06 15:55 | 35.13702 | 139.93520 | 12620 ft | 309 kts | 43° |
| 2026-05-06 15:55 | 35.15226 | 139.95342 | 11894 ft | 304 kts | 43° |
| 2026-05-06 15:56 | 35.16732 | 139.97143 | 11148 ft | 301 kts | 43° |
| 2026-05-06 15:56 | 35.18194 | 139.98892 | 10805 ft | 290 kts | 43° |
| 2026-05-06 15:56 | 35.19658 | 140.00646 | 10725 ft | 296 kts | 44° |
| 2026-05-06 15:56 | 35.21126 | 140.02405 | 10656 ft | 295 kts | 44° |
| 2026-05-06 15:57 | 35.22595 | 140.04167 | 10536 ft | 295 kts | 44° |
| 2026-05-06 15:57 | 35.24056 | 140.05921 | 10388 ft | 294 kts | 44° |
| 2026-05-06 15:57 | 35.25518 | 140.07676 | 10234 ft | 294 kts | 44° |
| 2026-05-06 15:57 | 35.27000 | 140.09397 | 10056 ft | 295 kts | 36° |
| 2026-05-06 15:58 | 35.28874 | 140.10492 | 9875 ft | 310 kts | 9° |
| 2026-05-06 15:58 | 35.30994 | 140.10593 | 9761 ft | 305 kts | 349° |
| 2026-05-06 15:58 | 35.32990 | 140.09868 | 9629 ft | 297 kts | 330° |
| 2026-05-06 15:58 | 35.34843 | 140.08766 | 9499 ft | 296 kts | 328° |
| 2026-05-06 15:59 | 35.36694 | 140.07612 | 9371 ft | 301 kts | 328° |
| 2026-05-06 15:59 | 35.38545 | 140.06472 | 9240 ft | 293 kts | 328° |
| 2026-05-06 15:59 | 35.40374 | 140.05364 | 9113 ft | 293 kts | 329° |
| 2026-05-06 15:59 | 35.42211 | 140.04263 | 8984 ft | 294 kts | 329° |
| 2026-05-06 16:00 | 35.44048 | 140.03169 | 8858 ft | 293 kts | 329° |
| 2026-05-06 16:00 | 35.45879 | 140.02081 | 8731 ft | 292 kts | 329° |
| 2026-05-06 16:00 | 35.47708 | 140.00995 | 8606 ft | 292 kts | 329° |
| 2026-05-06 16:00 | 35.49529 | 139.99913 | 8473 ft | 291 kts | 329° |
| 2026-05-06 16:01 | 35.51328 | 139.98802 | 8352 ft | 288 kts | 322° |
| 2026-05-06 16:01 | 35.52985 | 139.97439 | 8231 ft | 286 kts | 321° |
| 2026-05-06 16:01 | 35.54633 | 139.96084 | 8109 ft | 285 kts | 321° |
| 2026-05-06 16:01 | 35.56285 | 139.94732 | 7987 ft | 284 kts | 321° |
| 2026-05-06 16:02 | 35.57929 | 139.93385 | 7867 ft | 284 kts | 321° |
| 2026-05-06 16:02 | 35.59568 | 139.92040 | 7744 ft | 283 kts | 321° |
| 2026-05-06 16:02 | 35.61204 | 139.90697 | 7619 ft | 282 kts | 321° |
| 2026-05-06 16:02 | 35.62835 | 139.89356 | 7505 ft | 282 kts | 321° |
| 2026-05-06 16:03 | 35.64461 | 139.88019 | 7385 ft | 281 kts | 321° |
| 2026-05-06 16:03 | 35.66082 | 139.86685 | 7266 ft | 281 kts | 321° |
| 2026-05-06 16:03 | 35.67702 | 139.85350 | 7148 ft | 280 kts | 321° |
| 2026-05-06 16:03 | 35.69325 | 139.84012 | 7026 ft | 280 kts | 321° |
| 2026-05-06 16:04 | 35.70940 | 139.82681 | 6907 ft | 279 kts | 321° |
| 2026-05-06 16:04 | 35.72552 | 139.81350 | 6790 ft | 279 kts | 321° |
| 2026-05-06 16:04 | 35.74160 | 139.80024 | 6667 ft | 279 kts | 321° |
| 2026-05-06 16:04 | 35.75778 | 139.78686 | 6331 ft | 281 kts | 321° |
| 2026-05-06 16:05 | 35.77379 | 139.77362 | 5957 ft | 280 kts | 321° |
| 2026-05-06 16:05 | 35.79010 | 139.76012 | 5601 ft | 278 kts | 321° |
| 2026-05-06 16:05 | 35.80375 | 139.74404 | 5231 ft | 267 kts | 297° |
| 2026-05-06 16:05 | 35.80965 | 139.72337 | 4871 ft | 257 kts | 271° |
| 2026-05-06 16:06 | 35.80737 | 139.70210 | 4506 ft | 249 kts | 246° |
| 2026-05-06 16:06 | 35.79952 | 139.68339 | 4204 ft | 244 kts | 239° |
| 2026-05-06 16:06 | 35.79110 | 139.66504 | 4106 ft | 250 kts | 233° |
| 2026-05-06 16:06 | 35.77785 | 139.65273 | 4059 ft | 234 kts | 197° |
| 2026-05-06 16:07 | 35.76234 | 139.65166 | 4161 ft | 217 kts | 172° |
| 2026-05-06 16:07 | 35.74847 | 139.65718 | 4168 ft | 203 kts | 159° |
| 2026-05-06 16:07 | 35.73648 | 139.66483 | 4089 ft | 187 kts | 154° |
| 2026-05-06 16:07 | 35.72578 | 139.67250 | 3905 ft | 169 kts | 154° |
| 2026-05-06 16:08 | 35.71609 | 139.67942 | 3724 ft | 155 kts | 155° |
| 2026-05-06 16:08 | 35.70713 | 139.68581 | 3544 ft | 146 kts | 155° |
| 2026-05-06 16:08 | 35.69837 | 139.69205 | 3374 ft | 140 kts | 155° |
| 2026-05-06 16:08 | 35.69040 | 139.69776 | 3179 ft | 130 kts | 155° |
| 2026-05-06 16:09 | 35.68242 | 139.70343 | 3006 ft | 132 kts | 155° |
| 2026-05-06 16:09 | 35.67454 | 139.70906 | 2828 ft | 130 kts | 155° |
| 2026-05-06 16:09 | 35.66672 | 139.71465 | 2653 ft | 130 kts | 155° |
| 2026-05-06 16:09 | 35.65886 | 139.72024 | 2403 ft | 129 kts | 155° |
| 2026-05-06 16:10 | 35.65111 | 139.72580 | 2152 ft | 129 kts | 154° |
| 2026-05-06 16:10 | 35.64342 | 139.73137 | 1903 ft | 128 kts | 154° |
| 2026-05-06 16:10 | 35.63575 | 139.73691 | 1670 ft | 127 kts | 154° |
| 2026-05-06 16:10 | 35.62809 | 139.74230 | 1484 ft | 127 kts | 154° |
| 2026-05-06 16:11 | 35.62035 | 139.74764 | 1320 ft | 128 kts | 153° |
| 2026-05-06 16:11 | 35.61272 | 139.75327 | 1129 ft | 129 kts | 152° |
| 2026-05-06 16:11 | 35.60502 | 139.75891 | 931 ft | 129 kts | 153° |
| 2026-05-06 16:11 | 35.59729 | 139.76429 | 762 ft | 126 kts | 152° |
| 2026-05-06 16:12 | 35.58959 | 139.76970 | 608 ft | 130 kts | 152° |
| 2026-05-06 16:12 | 35.58173 | 139.77523 | 425 ft | 127 kts | 151° |
| 2026-05-06 16:12 | 35.57415 | 139.78074 | 276 ft | 131 kts | 150° |
| 2026-05-06 16:12 | 35.56627 | 139.78632 | 93 ft | 129 kts | 151° |
| 2026-05-06 16:13 | 35.55897 | 139.79151 | 26 ft | 105 kts | 150° |
| 2026-05-06 16:13 | 35.55435 | 139.79473 | 26 ft | 47 kts | 150° |
| 2026-05-06 16:13 | 35.55197 | 139.79642 | 26 ft | 36 kts | 151° |
| 2026-05-06 16:13 | 35.55047 | 139.79731 | 24 ft | 21 kts | 163° |
| 2026-05-06 16:14 | 35.54908 | 139.79747 | 26 ft | 16 kts | 178° |
| 2026-05-06 16:14 | 35.54852 | 139.79748 | 27 ft | 11 kts | 179° |
| 2026-05-06 16:14 | 35.54766 | 139.79741 | 26 ft | 0 kts | 208° |
| 2026-05-06 16:16 | 35.54766 | 139.79740 | 26 ft | 1 kts | 208° |
| 2026-05-06 16:16 | 35.54755 | 139.79726 | 24 ft | 3 kts | 243° |
| 2026-05-06 16:17 | 35.54767 | 139.79695 | 24 ft | 6 kts | 312° |
| 2026-05-06 16:17 | 35.54814 | 139.79659 | 23 ft | 10 kts | 330° |
| 2026-05-06 16:17 | 35.54890 | 139.79605 | 23 ft | 15 kts | 330° |
| 2026-05-06 16:17 | 35.54988 | 139.79536 | 23 ft | 17 kts | 330° |
| 2026-05-06 16:18 | 35.55078 | 139.79473 | 25 ft | 16 kts | 330° |
| 2026-05-06 16:18 | 35.55185 | 139.79396 | 24 ft | 19 kts | 329° |
| 2026-05-06 16:18 | 35.55299 | 139.79313 | 24 ft | 18 kts | 330° |
| 2026-05-06 16:18 | 35.55408 | 139.79237 | 25 ft | 19 kts | 330° |
| 2026-05-06 16:19 | 35.55522 | 139.79157 | 23 ft | 21 kts | 330° |
| 2026-05-06 16:19 | 35.55639 | 139.79073 | 24 ft | 18 kts | 330° |
| 2026-05-06 16:19 | 35.55729 | 139.79007 | 26 ft | 2 kts | 322° |
| 2026-05-06 16:19 | 35.55750 | 139.78981 | 23 ft | 6 kts | 303° |
| 2026-05-06 16:20 | 35.55738 | 139.78940 | 26 ft | 7 kts | 240° |
| 2026-05-06 16:20 | 35.55707 | 139.78874 | 23 ft | 11 kts | 240° |
| 2026-05-06 16:20 | 35.55663 | 139.78779 | 22 ft | 12 kts | 240° |
| 2026-05-06 16:20 | 35.55669 | 139.78690 | 24 ft | 7 kts | 308° |
| 2026-05-06 16:21 | 35.55705 | 139.78664 | 25 ft | 8 kts | 330° |
| 2026-05-06 16:21 | 35.55764 | 139.78648 | 25 ft | 7 kts | 36° |
| 2026-05-06 16:21 | 35.55776 | 139.78683 | 22 ft | 6 kts | 56° |
| 2026-05-06 16:21 | 35.55797 | 139.78726 | 22 ft | 0 kts | 59° |